sensor_id;sensor_type;location;lat;lon;timestamp;P1;durP1;ratioP1;P2;durP2;ratioP2
3149;SDS011;32503;47.748;8.960;2023-03-24T00:01:19;4.67;;;4.37;;
3149;SDS011;32503;47.748;8.960;2023-03-24T00:03:46;5.30;;;4.90;;
3149;SDS011;32503;47.748;8.960;2023-03-24T00:06:16;5.60;;;5.20;;
3149;SDS011;32503;47.748;8.960;2023-03-24T00:08:46;4.47;;;4.17;;
3149;SDS011;32503;47.748;8.960;2023-03-24T00:11:14;4.43;;;4.13;;
3149;SDS011;32503;47.748;8.960;2023-03-24T00:13:42;7.53;;;4.17;;
3149;SDS011;32503;47.748;8.960;2023-03-24T00:16:12;5.40;;;5.00;;
3149;SDS011;32503;47.748;8.960;2023-03-24T00:18:44;5.20;;;4.80;;
3149;SDS011;32503;47.748;8.960;2023-03-24T00:21:17;3.87;;;3.67;;
3149;SDS011;32503;47.748;8.960;2023-03-24T00:23:47;4.73;;;4.40;;
3149;SDS011;32503;47.748;8.960;2023-03-24T00:26:15;4.47;;;4.17;;
3149;SDS011;32503;47.748;8.960;2023-03-24T00:28:43;4.43;;;4.03;;
3149;SDS011;32503;47.748;8.960;2023-03-24T00:31:13;4.60;;;4.23;;
3149;SDS011;32503;47.748;8.960;2023-03-24T00:33:42;4.30;;;4.03;;
3149;SDS011;32503;47.748;8.960;2023-03-24T00:36:15;4.57;;;4.27;;
3149;SDS011;32503;47.748;8.960;2023-03-24T00:38:45;5.07;;;4.60;;
3149;SDS011;32503;47.748;8.960;2023-03-24T00:41:12;5.87;;;5.37;;
3149;SDS011;32503;47.748;8.960;2023-03-24T00:43:41;7.77;;;7.03;;
3149;SDS011;32503;47.748;8.960;2023-03-24T00:46:10;12.30;;;7.97;;
3149;SDS011;32503;47.748;8.960;2023-03-24T00:48:53;7.87;;;7.13;;
3149;SDS011;32503;47.748;8.960;2023-03-24T00:51:26;8.70;;;7.43;;
3149;SDS011;32503;47.748;8.960;2023-03-24T00:53:55;7.90;;;6.23;;
3149;SDS011;32503;47.748;8.960;2023-03-24T00:56:24;6.70;;;6.10;;
3149;SDS011;32503;47.748;8.960;2023-03-24T00:58:55;6.63;;;6.10;;
3149;SDS011;32503;47.748;8.960;2023-03-24T01:01:26;6.37;;;5.77;;
3149;SDS011;32503;47.748;8.960;2023-03-24T01:03:58;7.97;;;6.80;;
3149;SDS011;32503;47.748;8.960;2023-03-24T01:06:26;8.03;;;7.30;;
3149;SDS011;32503;47.748;8.960;2023-03-24T01:08:54;9.10;;;6.53;;
3149;SDS011;32503;47.748;8.960;2023-03-24T01:11:22;6.57;;;6.07;;
3149;SDS011;32503;47.748;8.960;2023-03-24T01:13:51;6.53;;;5.80;;
3149;SDS011;32503;47.748;8.960;2023-03-24T01:16:19;7.57;;;5.93;;
3149;SDS011;32503;47.748;8.960;2023-03-24T01:18:49;5.70;;;5.30;;
3149;SDS011;32503;47.748;8.960;2023-03-24T01:21:18;5.43;;;5.03;;
3149;SDS011;32503;47.748;8.960;2023-03-24T01:23:45;8.80;;;6.00;;
3149;SDS011;32503;47.748;8.960;2023-03-24T01:26:12;5.37;;;4.97;;
3149;SDS011;32503;47.748;8.960;2023-03-24T01:28:40;5.57;;;5.17;;
3149;SDS011;32503;47.748;8.960;2023-03-24T01:31:08;5.20;;;4.90;;
3149;SDS011;32503;47.748;8.960;2023-03-24T01:33:36;5.47;;;4.93;;
3149;SDS011;32503;47.748;8.960;2023-03-24T01:36:04;5.70;;;5.20;;
3149;SDS011;32503;47.748;8.960;2023-03-24T01:38:34;5.23;;;4.83;;
3149;SDS011;32503;47.748;8.960;2023-03-24T01:41:01;4.60;;;4.30;;
3149;SDS011;32503;47.748;8.960;2023-03-24T01:43:30;5.20;;;4.80;;
3149;SDS011;32503;47.748;8.960;2023-03-24T01:46:15;5.07;;;4.77;;
3149;SDS011;32503;47.748;8.960;2023-03-24T01:48:46;5.10;;;4.67;;
3149;SDS011;32503;47.748;8.960;2023-03-24T01:51:18;6.13;;;5.60;;
3149;SDS011;32503;47.748;8.960;2023-03-24T01:53:53;4.80;;;4.50;;
3149;SDS011;32503;47.748;8.960;2023-03-24T01:56:34;6.40;;;5.80;;
3149;SDS011;32503;47.748;8.960;2023-03-24T01:59:05;5.10;;;4.80;;
3149;SDS011;32503;47.748;8.960;2023-03-24T02:01:37;6.17;;;5.57;;
3149;SDS011;32503;47.748;8.960;2023-03-24T02:04:05;7.70;;;5.27;;
3149;SDS011;32503;47.748;8.960;2023-03-24T02:06:33;5.20;;;4.93;;
3149;SDS011;32503;47.748;8.960;2023-03-24T02:09:12;5.10;;;4.80;;
3149;SDS011;32503;47.748;8.960;2023-03-24T02:11:40;4.70;;;4.40;;
3149;SDS011;32503;47.748;8.960;2023-03-24T02:14:08;5.47;;;5.07;;
3149;SDS011;32503;47.748;8.960;2023-03-24T02:16:44;5.37;;;4.97;;
3149;SDS011;32503;47.748;8.960;2023-03-24T02:19:33;5.50;;;5.10;;
3149;SDS011;32503;47.748;8.960;2023-03-24T02:36:17;5.97;;;5.47;;
3149;SDS011;32503;47.748;8.960;2023-03-24T02:39:25;5.23;;;4.93;;
3149;SDS011;32503;47.748;8.960;2023-03-24T02:42:21;5.37;;;4.57;;
3149;SDS011;32503;47.748;8.960;2023-03-24T02:45:01;6.13;;;5.30;;
3149;SDS011;32503;47.748;8.960;2023-03-24T02:47:45;7.43;;;4.90;;
3149;SDS011;32503;47.748;8.960;2023-03-24T02:50:26;6.23;;;5.63;;
3149;SDS011;32503;47.748;8.960;2023-03-24T02:52:59;6.00;;;5.50;;
3149;SDS011;32503;47.748;8.960;2023-03-24T02:55:38;5.97;;;5.57;;
3149;SDS011;32503;47.748;8.960;2023-03-24T02:58:10;5.30;;;4.97;;
3149;SDS011;32503;47.748;8.960;2023-03-24T03:00:43;5.90;;;5.33;;
3149;SDS011;32503;47.748;8.960;2023-03-24T03:03:15;6.00;;;5.60;;
3149;SDS011;32503;47.748;8.960;2023-03-24T03:05:51;5.13;;;4.73;;
3149;SDS011;32503;47.748;8.960;2023-03-24T03:08:22;5.67;;;5.23;;
3149;SDS011;32503;47.748;8.960;2023-03-24T03:10:54;5.00;;;4.50;;
3149;SDS011;32503;47.748;8.960;2023-03-24T03:13:25;4.93;;;4.60;;
3149;SDS011;32503;47.748;8.960;2023-03-24T03:16:02;6.00;;;5.37;;
3149;SDS011;32503;47.748;8.960;2023-03-24T03:18:35;5.40;;;4.97;;
3149;SDS011;32503;47.748;8.960;2023-03-24T03:21:10;5.00;;;4.60;;
3149;SDS011;32503;47.748;8.960;2023-03-24T03:23:41;5.30;;;4.73;;
3149;SDS011;32503;47.748;8.960;2023-03-24T03:26:14;4.70;;;4.40;;
3149;SDS011;32503;47.748;8.960;2023-03-24T03:28:45;5.53;;;5.13;;
3149;SDS011;32503;47.748;8.960;2023-03-24T03:31:22;5.50;;;4.93;;
3149;SDS011;32503;47.748;8.960;2023-03-24T03:33:57;5.70;;;5.37;;
3149;SDS011;32503;47.748;8.960;2023-03-24T03:36:32;7.30;;;5.50;;
3149;SDS011;32503;47.748;8.960;2023-03-24T03:39:07;5.77;;;5.17;;
3149;SDS011;32503;47.748;8.960;2023-03-24T03:41:41;5.07;;;4.67;;
3149;SDS011;32503;47.748;8.960;2023-03-24T03:44:09;5.50;;;5.20;;
3149;SDS011;32503;47.748;8.960;2023-03-24T03:46:37;4.67;;;4.37;;
3149;SDS011;32503;47.748;8.960;2023-03-24T03:49:05;5.67;;;5.07;;
3149;SDS011;32503;47.748;8.960;2023-03-24T03:51:33;5.53;;;4.93;;
3149;SDS011;32503;47.748;8.960;2023-03-24T03:54:01;5.07;;;4.67;;
3149;SDS011;32503;47.748;8.960;2023-03-24T03:56:34;4.87;;;4.47;;
3149;SDS011;32503;47.748;8.960;2023-03-24T03:59:04;5.80;;;5.30;;
3149;SDS011;32503;47.748;8.960;2023-03-24T04:01:33;6.70;;;5.00;;
3149;SDS011;32503;47.748;8.960;2023-03-24T04:04:10;5.47;;;5.17;;
3149;SDS011;32503;47.748;8.960;2023-03-24T04:07:02;5.10;;;4.57;;
3149;SDS011;32503;47.748;8.960;2023-03-24T04:09:40;4.83;;;4.40;;
3149;SDS011;32503;47.748;8.960;2023-03-24T04:12:25;4.83;;;4.53;;
3149;SDS011;32503;47.748;8.960;2023-03-24T04:15:30;5.00;;;4.50;;
3149;SDS011;32503;47.748;8.960;2023-03-24T04:18:14;5.40;;;5.00;;
3149;SDS011;32503;47.748;8.960;2023-03-24T04:24:01;5.50;;;5.10;;
3149;SDS011;32503;47.748;8.960;2023-03-24T04:26:46;5.53;;;5.10;;
3149;SDS011;32503;47.748;8.960;2023-03-24T04:29:19;6.03;;;5.40;;
3149;SDS011;32503;47.748;8.960;2023-03-24T04:31:58;5.00;;;4.67;;
3149;SDS011;32503;47.748;8.960;2023-03-24T04:34:31;5.80;;;5.30;;
3149;SDS011;32503;47.748;8.960;2023-03-24T04:37:02;8.70;;;6.40;;
3149;SDS011;32503;47.748;8.960;2023-03-24T04:39:39;16.17;;;7.57;;
3149;SDS011;32503;47.748;8.960;2023-03-24T04:42:11;26.10;;;11.27;;
3149;SDS011;32503;47.748;8.960;2023-03-24T04:44:44;22.53;;;7.73;;
3149;SDS011;32503;47.748;8.960;2023-03-24T04:47:16;20.03;;;8.97;;
3149;SDS011;32503;47.748;8.960;2023-03-24T04:49:46;24.43;;;9.83;;
3149;SDS011;32503;47.748;8.960;2023-03-24T04:52:14;19.40;;;9.73;;
3149;SDS011;32503;47.748;8.960;2023-03-24T04:54:41;19.30;;;9.40;;
3149;SDS011;32503;47.748;8.960;2023-03-24T04:57:08;10.37;;;6.90;;
3149;SDS011;32503;47.748;8.960;2023-03-24T04:59:35;7.20;;;6.47;;
3149;SDS011;32503;47.748;8.960;2023-03-24T05:02:02;5.97;;;5.67;;
3149;SDS011;32503;47.748;8.960;2023-03-24T05:04:31;6.80;;;6.30;;
3149;SDS011;32503;47.748;8.960;2023-03-24T05:07:00;7.33;;;6.73;;
3149;SDS011;32503;47.748;8.960;2023-03-24T05:09:28;8.10;;;6.50;;
3149;SDS011;32503;47.748;8.960;2023-03-24T05:11:56;6.40;;;5.73;;
3149;SDS011;32503;47.748;8.960;2023-03-24T05:14:23;6.80;;;6.17;;
3149;SDS011;32503;47.748;8.960;2023-03-24T05:16:50;6.47;;;5.90;;
3149;SDS011;32503;47.748;8.960;2023-03-24T05:19:17;5.97;;;5.60;;
3149;SDS011;32503;47.748;8.960;2023-03-24T05:21:46;6.97;;;6.47;;
3149;SDS011;32503;47.748;8.960;2023-03-24T05:24:13;6.23;;;5.80;;
3149;SDS011;32503;47.748;8.960;2023-03-24T05:26:40;7.43;;;6.73;;
3149;SDS011;32503;47.748;8.960;2023-03-24T05:29:07;7.13;;;6.57;;
3149;SDS011;32503;47.748;8.960;2023-03-24T05:31:34;7.27;;;6.77;;
3149;SDS011;32503;47.748;8.960;2023-03-24T05:34:01;7.73;;;7.13;;
3149;SDS011;32503;47.748;8.960;2023-03-24T05:36:28;7.03;;;6.33;;
3149;SDS011;32503;47.748;8.960;2023-03-24T05:38:57;7.43;;;6.37;;
3149;SDS011;32503;47.748;8.960;2023-03-24T05:41:24;6.63;;;5.90;;
3149;SDS011;32503;47.748;8.960;2023-03-24T05:43:51;7.07;;;6.50;;
3149;SDS011;32503;47.748;8.960;2023-03-24T05:46:18;6.53;;;6.07;;
3149;SDS011;32503;47.748;8.960;2023-03-24T05:48:45;6.37;;;5.77;;
3149;SDS011;32503;47.748;8.960;2023-03-24T05:51:12;7.23;;;6.63;;
3149;SDS011;32503;47.748;8.960;2023-03-24T05:53:39;8.17;;;6.07;;
3149;SDS011;32503;47.748;8.960;2023-03-24T05:56:08;6.50;;;5.63;;
3149;SDS011;32503;47.748;8.960;2023-03-24T05:58:36;6.90;;;6.20;;
3149;SDS011;32503;47.748;8.960;2023-03-24T06:01:07;6.40;;;5.50;;
3149;SDS011;32503;47.748;8.960;2023-03-24T06:03:34;6.07;;;5.57;;
3149;SDS011;32503;47.748;8.960;2023-03-24T06:06:03;6.43;;;5.90;;
3149;SDS011;32503;47.748;8.960;2023-03-24T06:08:32;6.43;;;5.83;;
3149;SDS011;32503;47.748;8.960;2023-03-24T06:11:00;7.33;;;6.73;;
3149;SDS011;32503;47.748;8.960;2023-03-24T06:13:31;9.17;;;6.60;;
3149;SDS011;32503;47.748;8.960;2023-03-24T06:15:59;7.40;;;6.73;;
3149;SDS011;32503;47.748;8.960;2023-03-24T06:18:34;10.37;;;7.53;;
3149;SDS011;32503;47.748;8.960;2023-03-24T06:21:05;11.20;;;6.90;;
3149;SDS011;32503;47.748;8.960;2023-03-24T06:23:32;7.57;;;6.87;;
3149;SDS011;32503;47.748;8.960;2023-03-24T06:26:08;7.17;;;6.47;;
3149;SDS011;32503;47.748;8.960;2023-03-24T06:28:46;7.90;;;6.87;;
3149;SDS011;32503;47.748;8.960;2023-03-24T06:31:16;8.40;;;7.60;;
3149;SDS011;32503;47.748;8.960;2023-03-24T06:33:48;10.97;;;7.40;;
3149;SDS011;32503;47.748;8.960;2023-03-24T06:36:21;7.80;;;7.00;;
3149;SDS011;32503;47.748;8.960;2023-03-24T06:38:51;7.93;;;7.03;;
3149;SDS011;32503;47.748;8.960;2023-03-24T06:41:23;7.20;;;6.60;;
3149;SDS011;32503;47.748;8.960;2023-03-24T06:43:55;7.43;;;5.93;;
3149;SDS011;32503;47.748;8.960;2023-03-24T06:46:23;6.80;;;6.30;;
3149;SDS011;32503;47.748;8.960;2023-03-24T06:48:52;7.07;;;6.40;;
3149;SDS011;32503;47.748;8.960;2023-03-24T06:51:23;7.93;;;7.20;;
3149;SDS011;32503;47.748;8.960;2023-03-24T06:53:51;7.60;;;6.80;;
3149;SDS011;32503;47.748;8.960;2023-03-24T06:56:18;10.60;;;8.93;;
3149;SDS011;32503;47.748;8.960;2023-03-24T06:58:47;9.07;;;8.20;;
3149;SDS011;32503;47.748;8.960;2023-03-24T07:01:18;13.03;;;10.33;;
3149;SDS011;32503;47.748;8.960;2023-03-24T07:03:46;14.57;;;10.83;;
3149;SDS011;32503;47.748;8.960;2023-03-24T07:06:14;13.60;;;10.87;;
3149;SDS011;32503;47.748;8.960;2023-03-24T07:08:42;12.20;;;8.70;;
3149;SDS011;32503;47.748;8.960;2023-03-24T07:11:09;9.13;;;8.43;;
3149;SDS011;32503;47.748;8.960;2023-03-24T07:13:37;10.97;;;9.90;;
3149;SDS011;32503;47.748;8.960;2023-03-24T07:16:04;8.50;;;6.67;;
3149;SDS011;32503;47.748;8.960;2023-03-24T07:18:33;7.73;;;6.93;;
3149;SDS011;32503;47.748;8.960;2023-03-24T07:21:01;3.97;;;3.77;;
3149;SDS011;32503;47.748;8.960;2023-03-24T07:23:28;6.73;;;5.07;;
3149;SDS011;32503;47.748;8.960;2023-03-24T07:25:56;4.53;;;4.23;;
3149;SDS011;32503;47.748;8.960;2023-03-24T07:28:24;4.10;;;3.80;;
3149;SDS011;32503;47.748;8.960;2023-03-24T07:30:51;4.63;;;4.23;;
3149;SDS011;32503;47.748;8.960;2023-03-24T07:33:18;3.50;;;3.30;;
3149;SDS011;32503;47.748;8.960;2023-03-24T07:35:47;4.67;;;4.37;;
3149;SDS011;32503;47.748;8.960;2023-03-24T07:38:14;4.00;;;3.70;;
3149;SDS011;32503;47.748;8.960;2023-03-24T07:40:41;4.80;;;4.40;;
3149;SDS011;32503;47.748;8.960;2023-03-24T07:43:08;4.40;;;3.70;;
3149;SDS011;32503;47.748;8.960;2023-03-24T07:45:35;7.00;;;4.60;;
3149;SDS011;32503;47.748;8.960;2023-03-24T07:48:02;4.67;;;4.27;;
3149;SDS011;32503;47.748;8.960;2023-03-24T07:50:29;6.70;;;4.27;;
3149;SDS011;32503;47.748;8.960;2023-03-24T07:52:59;4.37;;;4.07;;
3149;SDS011;32503;47.748;8.960;2023-03-24T07:55:26;4.93;;;4.07;;
3149;SDS011;32503;47.748;8.960;2023-03-24T07:57:53;3.77;;;3.50;;
3149;SDS011;32503;47.748;8.960;2023-03-24T08:00:21;5.27;;;4.63;;
3149;SDS011;32503;47.748;8.960;2023-03-24T08:02:49;6.20;;;4.17;;
3149;SDS011;32503;47.748;8.960;2023-03-24T08:05:19;5.47;;;4.93;;
3149;SDS011;32503;47.748;8.960;2023-03-24T08:07:49;5.77;;;5.27;;
3149;SDS011;32503;47.748;8.960;2023-03-24T08:10:23;4.90;;;4.60;;
3149;SDS011;32503;47.748;8.960;2023-03-24T08:12:54;4.27;;;3.97;;
3149;SDS011;32503;47.748;8.960;2023-03-24T08:15:23;5.50;;;5.03;;
3149;SDS011;32503;47.748;8.960;2023-03-24T08:17:51;4.13;;;3.93;;
3149;SDS011;32503;47.748;8.960;2023-03-24T08:20:20;5.30;;;5.00;;
3149;SDS011;32503;47.748;8.960;2023-03-24T08:22:49;5.30;;;5.00;;
3149;SDS011;32503;47.748;8.960;2023-03-24T08:25:21;7.37;;;4.43;;
3149;SDS011;32503;47.748;8.960;2023-03-24T08:27:51;4.80;;;4.33;;
3149;SDS011;32503;47.748;8.960;2023-03-24T08:30:19;5.47;;;5.07;;
3149;SDS011;32503;47.748;8.960;2023-03-24T08:32:49;4.57;;;4.17;;
3149;SDS011;32503;47.748;8.960;2023-03-24T08:35:19;4.30;;;3.90;;
3149;SDS011;32503;47.748;8.960;2023-03-24T08:37:48;4.57;;;4.37;;
3149;SDS011;32503;47.748;8.960;2023-03-24T08:40:17;4.07;;;3.70;;
3149;SDS011;32503;47.748;8.960;2023-03-24T08:42:50;4.00;;;3.80;;
3149;SDS011;32503;47.748;8.960;2023-03-24T08:45:20;5.83;;;5.40;;
3149;SDS011;32503;47.748;8.960;2023-03-24T08:47:51;4.60;;;4.40;;
3149;SDS011;32503;47.748;8.960;2023-03-24T08:50:20;4.93;;;4.53;;
3149;SDS011;32503;47.748;8.960;2023-03-24T08:52:52;4.23;;;3.93;;
3149;SDS011;32503;47.748;8.960;2023-03-24T08:55:20;6.00;;;4.40;;
3149;SDS011;32503;47.748;8.960;2023-03-24T08:57:50;5.03;;;4.63;;
3149;SDS011;32503;47.748;8.960;2023-03-24T09:00:18;4.67;;;4.37;;
3149;SDS011;32503;47.748;8.960;2023-03-24T09:02:47;7.50;;;4.50;;
3149;SDS011;32503;47.748;8.960;2023-03-24T09:05:18;4.27;;;3.97;;
3149;SDS011;32503;47.748;8.960;2023-03-24T09:07:47;4.63;;;4.23;;
3149;SDS011;32503;47.748;8.960;2023-03-24T09:10:16;4.97;;;4.57;;
3149;SDS011;32503;47.748;8.960;2023-03-24T09:12:44;5.07;;;4.77;;
3149;SDS011;32503;47.748;8.960;2023-03-24T09:15:13;4.70;;;4.03;;
3149;SDS011;32503;47.748;8.960;2023-03-24T09:17:45;4.17;;;3.87;;
3149;SDS011;32503;47.748;8.960;2023-03-24T09:20:13;5.13;;;4.77;;
3149;SDS011;32503;47.748;8.960;2023-03-24T09:22:44;4.13;;;3.83;;
3149;SDS011;32503;47.748;8.960;2023-03-24T09:25:15;6.70;;;4.40;;
3149;SDS011;32503;47.748;8.960;2023-03-24T09:27:45;4.37;;;4.17;;
3149;SDS011;32503;47.748;8.960;2023-03-24T09:30:17;4.27;;;3.97;;
3149;SDS011;32503;47.748;8.960;2023-03-24T09:32:47;3.73;;;3.47;;
3149;SDS011;32503;47.748;8.960;2023-03-24T09:35:14;4.30;;;4.10;;
3149;SDS011;32503;47.748;8.960;2023-03-24T09:37:41;3.70;;;3.50;;
3149;SDS011;32503;47.748;8.960;2023-03-24T09:40:10;4.27;;;4.03;;
3149;SDS011;32503;47.748;8.960;2023-03-24T09:42:46;4.90;;;4.60;;
3149;SDS011;32503;47.748;8.960;2023-03-24T09:45:21;4.50;;;4.30;;
3149;SDS011;32503;47.748;8.960;2023-03-24T09:47:51;4.80;;;4.50;;
3149;SDS011;32503;47.748;8.960;2023-03-24T09:50:23;5.13;;;4.73;;
3149;SDS011;32503;47.748;8.960;2023-03-24T09:52:55;4.73;;;4.37;;
3149;SDS011;32503;47.748;8.960;2023-03-24T09:55:28;3.40;;;3.30;;
3149;SDS011;32503;47.748;8.960;2023-03-24T09:57:55;4.10;;;3.90;;
3149;SDS011;32503;47.748;8.960;2023-03-24T10:00:30;3.47;;;3.27;;
3149;SDS011;32503;47.748;8.960;2023-03-24T10:02:59;3.50;;;3.20;;
3149;SDS011;32503;47.748;8.960;2023-03-24T10:05:40;3.60;;;3.40;;
3149;SDS011;32503;47.748;8.960;2023-03-24T10:08:11;2.93;;;2.73;;
3149;SDS011;32503;47.748;8.960;2023-03-24T10:10:46;2.73;;;2.53;;
3149;SDS011;32503;47.748;8.960;2023-03-24T10:13:24;2.70;;;2.60;;
3149;SDS011;32503;47.748;8.960;2023-03-24T10:16:06;2.50;;;2.40;;
3149;SDS011;32503;47.748;8.960;2023-03-24T10:18:41;2.07;;;1.97;;
3149;SDS011;32503;47.748;8.960;2023-03-24T10:21:16;2.77;;;2.57;;
3149;SDS011;32503;47.748;8.960;2023-03-24T10:23:49;2.73;;;2.53;;
3149;SDS011;32503;47.748;8.960;2023-03-24T10:26:30;2.07;;;1.97;;
3149;SDS011;32503;47.748;8.960;2023-03-24T10:29:10;2.90;;;2.70;;
3149;SDS011;32503;47.748;8.960;2023-03-24T10:31:49;2.30;;;2.20;;
3149;SDS011;32503;47.748;8.960;2023-03-24T10:34:21;3.00;;;2.80;;
3149;SDS011;32503;47.748;8.960;2023-03-24T10:36:55;3.27;;;3.07;;
3149;SDS011;32503;47.748;8.960;2023-03-24T10:39:24;2.67;;;2.57;;
3149;SDS011;32503;47.748;8.960;2023-03-24T10:41:51;6.13;;;2.53;;
3149;SDS011;32503;47.748;8.960;2023-03-24T10:44:20;2.83;;;2.63;;
3149;SDS011;32503;47.748;8.960;2023-03-24T10:46:49;2.57;;;2.47;;
3149;SDS011;32503;47.748;8.960;2023-03-24T10:49:20;3.40;;;3.20;;
3149;SDS011;32503;47.748;8.960;2023-03-24T10:51:49;2.50;;;2.40;;
3149;SDS011;32503;47.748;8.960;2023-03-24T10:54:21;3.43;;;3.23;;
3149;SDS011;32503;47.748;8.960;2023-03-24T10:56:50;3.23;;;3.13;;
3149;SDS011;32503;47.748;8.960;2023-03-24T10:59:28;2.97;;;2.77;;
3149;SDS011;32503;47.748;8.960;2023-03-24T11:02:00;3.30;;;3.10;;
3149;SDS011;32503;47.748;8.960;2023-03-24T11:04:43;3.00;;;2.80;;
3149;SDS011;32503;47.748;8.960;2023-03-24T11:07:21;3.60;;;3.40;;
3149;SDS011;32503;47.748;8.960;2023-03-24T11:09:57;3.20;;;2.90;;
3149;SDS011;32503;47.748;8.960;2023-03-24T11:12:29;2.30;;;2.20;;
3149;SDS011;32503;47.748;8.960;2023-03-24T11:15:03;2.87;;;2.67;;
3149;SDS011;32503;47.748;8.960;2023-03-24T11:17:44;2.67;;;2.50;;
3149;SDS011;32503;47.748;8.960;2023-03-24T11:20:15;3.50;;;3.30;;
3149;SDS011;32503;47.748;8.960;2023-03-24T11:25:32;2.20;;;2.10;;
3149;SDS011;32503;47.748;8.960;2023-03-24T11:28:05;2.17;;;2.07;;
3149;SDS011;32503;47.748;8.960;2023-03-24T11:30:36;2.20;;;2.10;;
3149;SDS011;32503;47.748;8.960;2023-03-24T11:33:14;2.00;;;1.90;;
3149;SDS011;32503;47.748;8.960;2023-03-24T11:35:46;2.23;;;2.07;;
3149;SDS011;32503;47.748;8.960;2023-03-24T11:38:14;1.93;;;1.83;;
3149;SDS011;32503;47.748;8.960;2023-03-24T11:40:51;1.57;;;1.47;;
3149;SDS011;32503;47.748;8.960;2023-03-24T11:43:22;1.30;;;1.20;;
3149;SDS011;32503;47.748;8.960;2023-03-24T11:45:52;1.40;;;1.30;;
3149;SDS011;32503;47.748;8.960;2023-03-24T11:48:29;1.60;;;1.50;;
3149;SDS011;32503;47.748;8.960;2023-03-24T11:51:03;1.63;;;1.53;;
3149;SDS011;32503;47.748;8.960;2023-03-24T11:53:34;1.83;;;1.10;;
3149;SDS011;32503;47.748;8.960;2023-03-24T11:56:08;4.00;;;2.70;;
3149;SDS011;32503;47.748;8.960;2023-03-24T11:58:43;4.37;;;2.00;;
3149;SDS011;32503;47.748;8.960;2023-03-24T12:01:15;1.47;;;1.37;;
3149;SDS011;32503;47.748;8.960;2023-03-24T12:04:06;1.50;;;1.40;;
3149;SDS011;32503;47.748;8.960;2023-03-24T12:06:57;1.57;;;1.10;;
3149;SDS011;32503;47.748;8.960;2023-03-24T12:09:48;1.07;;;1.00;;
3149;SDS011;32503;47.748;8.960;2023-03-24T12:12:21;1.50;;;1.30;;
3149;SDS011;32503;47.748;8.960;2023-03-24T12:15:03;3.87;;;2.03;;
3149;SDS011;32503;47.748;8.960;2023-03-24T12:17:50;1.67;;;1.57;;
3149;SDS011;32503;47.748;8.960;2023-03-24T12:20:35;1.20;;;1.03;;
3149;SDS011;32503;47.748;8.960;2023-03-24T12:23:09;3.13;;;2.53;;
3149;SDS011;32503;47.748;8.960;2023-03-24T12:25:46;3.20;;;2.33;;
3149;SDS011;32503;47.748;8.960;2023-03-24T12:28:38;1.27;;;1.10;;
3149;SDS011;32503;47.748;8.960;2023-03-24T12:31:29;1.63;;;1.10;;
3149;SDS011;32503;47.748;8.960;2023-03-24T12:34:25;1.67;;;1.10;;
3149;SDS011;32503;47.748;8.960;2023-03-24T12:37:22;1.47;;;1.10;;
3149;SDS011;32503;47.748;8.960;2023-03-24T12:40:00;1.00;;;0.90;;
3149;SDS011;32503;47.748;8.960;2023-03-24T12:42:47;1.00;;;0.80;;
3149;SDS011;32503;47.748;8.960;2023-03-24T12:45:30;1.40;;;1.30;;
3149;SDS011;32503;47.748;8.960;2023-03-24T12:48:11;1.50;;;1.40;;
3149;SDS011;32503;47.748;8.960;2023-03-24T12:51:05;1.53;;;1.43;;
3149;SDS011;32503;47.748;8.960;2023-03-24T12:53:54;1.10;;;1.00;;
3149;SDS011;32503;47.748;8.960;2023-03-24T12:56:38;1.33;;;1.13;;
3149;SDS011;32503;47.748;8.960;2023-03-24T12:59:13;1.00;;;0.87;;
3149;SDS011;32503;47.748;8.960;2023-03-24T13:01:48;1.00;;;0.90;;
3149;SDS011;32503;47.748;8.960;2023-03-24T13:04:19;1.70;;;1.20;;
3149;SDS011;32503;47.748;8.960;2023-03-24T13:06:52;1.27;;;1.17;;
3149;SDS011;32503;47.748;8.960;2023-03-24T13:09:30;1.17;;;1.07;;
3149;SDS011;32503;47.748;8.960;2023-03-24T13:12:05;1.63;;;0.77;;
3149;SDS011;32503;47.748;8.960;2023-03-24T13:14:41;1.53;;;1.20;;
3149;SDS011;32503;47.748;8.960;2023-03-24T13:17:18;0.80;;;0.80;;
3149;SDS011;32503;47.748;8.960;2023-03-24T13:19:52;2.77;;;1.10;;
3149;SDS011;32503;47.748;8.960;2023-03-24T13:22:24;1.00;;;0.90;;
3149;SDS011;32503;47.748;8.960;2023-03-24T13:24:53;1.40;;;1.30;;
3149;SDS011;32503;47.748;8.960;2023-03-24T13:27:22;1.33;;;0.83;;
3149;SDS011;32503;47.748;8.960;2023-03-24T13:29:59;0.77;;;0.77;;
3149;SDS011;32503;47.748;8.960;2023-03-24T13:32:40;1.30;;;0.90;;
3149;SDS011;32503;47.748;8.960;2023-03-24T13:35:12;0.90;;;0.80;;
3149;SDS011;32503;47.748;8.960;2023-03-24T13:37:52;0.90;;;0.90;;
3149;SDS011;32503;47.748;8.960;2023-03-24T13:40:27;1.17;;;0.87;;
3149;SDS011;32503;47.748;8.960;2023-03-24T13:42:57;1.37;;;0.90;;
3149;SDS011;32503;47.748;8.960;2023-03-24T13:45:34;1.00;;;0.90;;
3149;SDS011;32503;47.748;8.960;2023-03-24T13:48:25;1.00;;;0.90;;
3149;SDS011;32503;47.748;8.960;2023-03-24T13:50:58;1.00;;;0.80;;
3149;SDS011;32503;47.748;8.960;2023-03-24T13:53:30;2.40;;;1.87;;
3149;SDS011;32503;47.748;8.960;2023-03-24T13:56:04;1.03;;;0.77;;
3149;SDS011;32503;47.748;8.960;2023-03-24T13:58:44;1.00;;;0.80;;
3149;SDS011;32503;47.748;8.960;2023-03-24T14:01:17;0.90;;;0.90;;
3149;SDS011;32503;47.748;8.960;2023-03-24T14:04:13;0.80;;;0.67;;
3149;SDS011;32503;47.748;8.960;2023-03-24T14:06:50;1.00;;;0.90;;
3149;SDS011;32503;47.748;8.960;2023-03-24T14:09:19;3.00;;;1.00;;
3149;SDS011;32503;47.748;8.960;2023-03-24T14:12:14;1.20;;;0.97;;
3149;SDS011;32503;47.748;8.960;2023-03-24T14:17:43;1.10;;;1.00;;
3149;SDS011;32503;47.748;8.960;2023-03-24T14:20:25;1.23;;;0.80;;
3149;SDS011;32503;47.748;8.960;2023-03-24T14:22:58;1.30;;;1.10;;
3149;SDS011;32503;47.748;8.960;2023-03-24T14:25:28;0.70;;;0.67;;
3149;SDS011;32503;47.748;8.960;2023-03-24T14:28:18;0.77;;;0.70;;
3149;SDS011;32503;47.748;8.960;2023-03-24T14:33:58;1.57;;;0.80;;
3149;SDS011;32503;47.748;8.960;2023-03-24T14:36:35;0.80;;;0.70;;
3149;SDS011;32503;47.748;8.960;2023-03-24T14:39:08;0.80;;;0.80;;
3149;SDS011;32503;47.748;8.960;2023-03-24T14:41:51;1.30;;;0.80;;
3149;SDS011;32503;47.748;8.960;2023-03-24T14:47:20;1.33;;;0.80;;
3149;SDS011;32503;47.748;8.960;2023-03-24T14:49:50;1.50;;;1.07;;
3149;SDS011;32503;47.748;8.960;2023-03-24T14:52:20;3.00;;;1.20;;
3149;SDS011;32503;47.748;8.960;2023-03-24T14:54:51;2.70;;;1.10;;
3149;SDS011;32503;47.748;8.960;2023-03-24T14:57:22;1.03;;;1.00;;
3149;SDS011;32503;47.748;8.960;2023-03-24T14:59:56;1.20;;;1.00;;
3149;SDS011;32503;47.748;8.960;2023-03-24T15:02:36;2.93;;;1.40;;
3149;SDS011;32503;47.748;8.960;2023-03-24T15:05:14;1.37;;;1.27;;
3149;SDS011;32503;47.748;8.960;2023-03-24T15:07:57;2.10;;;1.00;;
3149;SDS011;32503;47.748;8.960;2023-03-24T15:10:36;4.50;;;1.87;;
3149;SDS011;32503;47.748;8.960;2023-03-24T15:13:32;1.67;;;1.50;;
3149;SDS011;32503;47.748;8.960;2023-03-24T15:16:04;3.60;;;1.20;;
3149;SDS011;32503;47.748;8.960;2023-03-24T15:18:45;3.50;;;1.90;;
3149;SDS011;32503;47.748;8.960;2023-03-24T15:21:15;3.33;;;1.20;;
3149;SDS011;32503;47.748;8.960;2023-03-24T15:23:49;3.03;;;1.43;;
3149;SDS011;32503;47.748;8.960;2023-03-24T15:26:17;2.00;;;1.73;;
3149;SDS011;32503;47.748;8.960;2023-03-24T15:28:52;1.77;;;1.43;;
3149;SDS011;32503;47.748;8.960;2023-03-24T15:31:22;1.00;;;0.90;;
3149;SDS011;32503;47.748;8.960;2023-03-24T15:33:54;2.03;;;1.40;;
3149;SDS011;32503;47.748;8.960;2023-03-24T15:36:34;1.83;;;1.73;;
3149;SDS011;32503;47.748;8.960;2023-03-24T15:39:17;1.00;;;0.90;;
3149;SDS011;32503;47.748;8.960;2023-03-24T15:41:48;1.13;;;1.00;;
3149;SDS011;32503;47.748;8.960;2023-03-24T15:44:17;2.57;;;1.10;;
3149;SDS011;32503;47.748;8.960;2023-03-24T15:46:47;1.50;;;1.30;;
3149;SDS011;32503;47.748;8.960;2023-03-24T15:49:23;2.20;;;1.30;;
3149;SDS011;32503;47.748;8.960;2023-03-24T15:51:55;1.07;;;0.97;;
3149;SDS011;32503;47.748;8.960;2023-03-24T15:54:25;1.00;;;0.90;;
3149;SDS011;32503;47.748;8.960;2023-03-24T15:56:58;1.53;;;1.43;;
3149;SDS011;32503;47.748;8.960;2023-03-24T15:59:42;2.40;;;1.03;;
3149;SDS011;32503;47.748;8.960;2023-03-24T16:02:25;1.10;;;1.00;;
3149;SDS011;32503;47.748;8.960;2023-03-24T16:04:59;1.43;;;1.07;;